createdAt,value
2019-02-19T00:00:50.440Z,15.50
2019-02-19T00:03:21.233Z,13.23
2019-02-19T00:05:53.984Z,18.47
2019-02-19T00:08:29.699Z,17.43
2019-02-19T00:11:02.438Z,18.03
2019-02-19T00:13:36.409Z,14.07
2019-02-19T00:16:10.165Z,17.10
2019-02-19T00:18:48.063Z,18.40
2019-02-19T00:21:19.371Z,15.47
2019-02-19T00:23:51.348Z,12.23
2019-02-19T00:26:34.600Z,16.40
2019-02-19T00:29:05.371Z,16.83
2019-02-19T00:31:40.620Z,16.53
2019-02-19T00:34:16.195Z,15.70
2019-02-19T00:36:46.936Z,15.90
2019-02-19T00:39:20.717Z,18.43
2019-02-19T00:41:51.501Z,11.93
2019-02-19T00:44:25.847Z,17.37
2019-02-19T00:46:59.089Z,13.00
2019-02-19T00:49:32.200Z,16.80
2019-02-19T00:52:07.425Z,11.73
2019-02-19T00:54:39.113Z,14.43
2019-02-19T00:57:09.910Z,13.50
2019-02-19T00:59:46.867Z,13.60
2019-02-19T01:02:19.376Z,14.40
2019-02-19T01:04:50.219Z,13.83
2019-02-19T01:07:21.267Z,16.37
2019-02-19T01:09:54.815Z,14.03
2019-02-19T01:12:25.617Z,13.47
2019-02-19T01:15:02.388Z,14.60
2019-02-19T01:17:33.643Z,15.23
2019-02-19T01:20:12.467Z,18.63
2019-02-19T01:22:42.838Z,15.33
2019-02-19T01:25:17.092Z,15.93
2019-02-19T01:27:48.124Z,18.40
2019-02-19T01:30:21.710Z,14.50
2019-02-19T01:32:57.175Z,11.93
2019-02-19T01:35:30.441Z,18.17
2019-02-19T01:38:01.057Z,13.90
2019-02-19T01:40:31.739Z,14.53
2019-02-19T01:43:02.468Z,17.73
2019-02-19T01:45:34.298Z,16.50
2019-02-19T01:48:14.161Z,14.77
2019-02-19T01:50:45.123Z,10.47
2019-02-19T01:53:17.462Z,17.70
2019-02-19T01:55:49.653Z,14.43
2019-02-19T01:58:20.457Z,15.07
2019-02-19T02:00:52.444Z,14.40
2019-02-19T02:03:26.332Z,15.13
2019-02-19T02:05:57.071Z,12.73
2019-02-19T02:08:29.373Z,11.50
2019-02-19T02:11:02.556Z,16.37
2019-02-19T02:13:36.568Z,16.40
2019-02-19T02:16:11.761Z,16.50
2019-02-19T02:18:46.537Z,15.00
2019-02-19T02:21:17.278Z,21.53
2019-02-19T02:23:50.356Z,17.13
2019-02-19T02:26:27.223Z,13.90
2019-02-19T02:28:58.385Z,17.00
2019-02-19T02:31:30.702Z,16.20
2019-02-19T02:34:01.376Z,16.13
2019-02-19T02:36:32.291Z,16.60
2019-02-19T02:39:03.470Z,14.13
2019-02-19T02:41:36.292Z,14.47
2019-02-19T02:44:11.444Z,16.90
2019-02-19T02:46:45.745Z,15.87
2019-02-19T02:49:18.493Z,15.70
2019-02-19T02:51:54.497Z,11.90
2019-02-19T02:54:27.658Z,21.23
2019-02-19T02:57:01.822Z,12.67
2019-02-19T02:59:34.115Z,14.03
2019-02-19T03:02:08.238Z,15.23
2019-02-19T03:04:40.899Z,16.40
2019-02-19T03:07:35.877Z,14.93
2019-02-19T03:10:09.735Z,19.33
2019-02-19T03:12:40.535Z,14.87
2019-02-19T03:15:11.668Z,13.30
2019-02-19T03:17:44.610Z,20.27
2019-02-19T03:20:15.280Z,21.00
2019-02-19T03:22:45.886Z,17.20
2019-02-19T03:25:16.795Z,17.33
2019-02-19T03:27:47.510Z,22.53
2019-02-19T03:30:18.305Z,19.80
2019-02-19T03:32:49.102Z,18.80
2019-02-19T03:35:19.793Z,15.97
2019-02-19T03:37:52.056Z,16.23
2019-02-19T03:40:22.698Z,19.40
2019-02-19T03:42:53.344Z,19.40
2019-02-19T03:45:24.109Z,19.80
2019-02-19T03:47:54.975Z,23.03
2019-02-19T03:50:25.523Z,18.40
2019-02-19T03:52:56.200Z,24.93
2019-02-19T03:55:27.742Z,21.50
2019-02-19T03:57:58.755Z,23.60
2019-02-19T04:00:29.345Z,23.03
2019-02-19T04:03:00.279Z,18.60
2019-02-19T04:05:30.932Z,20.70
2019-02-19T04:08:01.824Z,21.63
2019-02-19T04:10:32.757Z,27.90
2019-02-19T04:13:03.374Z,24.77
2019-02-19T04:15:34.267Z,22.47
2019-02-19T04:18:04.971Z,24.93
2019-02-19T04:20:35.621Z,21.47
2019-02-19T04:23:07.602Z,28.23
2019-02-19T04:25:38.341Z,27.10
2019-02-19T04:28:09.268Z,29.90
2019-02-19T04:30:42.250Z,31.93
2019-02-19T04:33:13.108Z,30.90
2019-02-19T04:35:43.788Z,31.73
2019-02-19T04:38:15.944Z,33.73
2019-02-19T04:40:46.842Z,31.97
2019-02-19T04:43:20.547Z,33.30
2019-02-19T04:45:51.278Z,35.70
2019-02-19T04:48:22.042Z,41.17
2019-02-19T04:50:52.802Z,40.07
2019-02-19T04:53:23.578Z,39.73
2019-02-19T04:55:54.310Z,40.87
2019-02-19T04:58:24.886Z,39.50
2019-02-19T05:00:55.543Z,47.23
2019-02-19T05:03:26.442Z,35.83
2019-02-19T05:05:57.566Z,44.10
2019-02-19T05:08:28.608Z,47.17
2019-02-19T05:10:59.323Z,43.60
2019-02-19T05:13:30.175Z,40.57
2019-02-19T05:16:00.928Z,48.03
2019-02-19T05:18:31.664Z,45.27
2019-02-19T05:21:02.580Z,44.10
2019-02-19T05:23:33.452Z,45.40
2019-02-19T05:26:05.330Z,59.00
2019-02-19T05:28:38.961Z,58.00
2019-02-19T05:31:17.524Z,50.77
2019-02-19T05:33:49.879Z,51.27
2019-02-19T05:36:23.542Z,52.20
2019-02-19T05:38:56.905Z,48.40
2019-02-19T05:41:27.622Z,59.87
2019-02-19T05:43:58.290Z,56.77
2019-02-19T05:46:28.990Z,45.37
2019-02-19T05:48:59.691Z,56.67
2019-02-19T05:51:30.525Z,47.83
2019-02-19T05:54:01.348Z,45.07
2019-02-19T05:56:32.079Z,52.87
2019-02-19T05:59:02.866Z,47.30
2019-02-19T06:01:33.573Z,46.27
2019-02-19T06:04:07.421Z,53.30
2019-02-19T06:06:38.131Z,48.83
2019-02-19T06:09:08.687Z,43.30
2019-02-19T06:11:39.367Z,49.30
2019-02-19T06:14:10.083Z,55.40
2019-02-19T06:16:43.738Z,48.17
2019-02-19T06:19:19.895Z,55.70
2019-02-19T06:21:52.640Z,40.67
2019-02-19T06:24:23.661Z,50.67
2019-02-19T06:26:54.454Z,52.80
2019-02-19T06:29:26.334Z,47.87
2019-02-19T06:31:57.014Z,46.83
2019-02-19T06:34:27.753Z,46.87
2019-02-19T06:36:59.960Z,43.67
2019-02-19T06:39:30.727Z,49.00
2019-02-19T06:42:01.655Z,48.00
2019-02-19T06:44:32.333Z,43.80
2019-02-19T06:47:10.239Z,44.13
2019-02-19T06:49:46.393Z,45.50
2019-02-19T06:52:13.654Z,44.00
2019-02-19T06:54:47.053Z,54.13
2019-02-19T06:57:18.245Z,39.47
2019-02-19T06:59:48.863Z,42.00
2019-02-19T07:02:40.688Z,43.90
2019-02-19T07:05:19.597Z,51.53
2019-02-19T07:07:50.194Z,47.20
2019-02-19T07:10:20.937Z,46.13
2019-02-19T07:12:51.679Z,43.17
2019-02-19T07:15:22.402Z,42.70
2019-02-19T07:17:53.286Z,50.57
2019-02-19T07:20:24.027Z,44.80
2019-02-19T07:22:54.791Z,40.07
2019-02-19T07:25:25.389Z,46.00
2019-02-19T07:27:56.388Z,42.87
2019-02-19T07:30:29.947Z,40.00
2019-02-19T07:33:03.672Z,45.63
2019-02-19T07:35:34.537Z,37.47
2019-02-19T07:38:07.013Z,36.70
2019-02-19T07:40:37.959Z,35.83
2019-02-19T07:43:08.673Z,37.57
2019-02-19T07:45:41.129Z,34.83
2019-02-19T07:48:13.231Z,30.30
2019-02-19T07:50:44.248Z,30.63
2019-02-19T07:53:15.155Z,34.93
2019-02-19T07:55:45.766Z,28.50
2019-02-19T07:58:19.952Z,30.83
2019-02-19T08:00:50.770Z,24.97
2019-02-19T08:03:21.364Z,29.07
2019-02-19T08:05:52.002Z,28.60
2019-02-19T08:08:22.579Z,26.30
2019-02-19T08:10:53.239Z,24.27
2019-02-19T08:13:24.160Z,34.60
2019-02-19T08:15:54.788Z,33.33
2019-02-19T08:18:25.476Z,26.97
2019-02-19T08:20:56.074Z,23.93
2019-02-19T08:23:31.607Z,32.90
2019-02-19T08:26:02.364Z,22.33
2019-02-19T08:28:33.343Z,31.40
2019-02-19T08:31:04.042Z,26.77
2019-02-19T08:33:34.959Z,32.27
2019-02-19T08:36:05.942Z,30.17
2019-02-19T08:38:36.610Z,32.10
2019-02-19T08:41:07.592Z,28.67
2019-02-19T08:43:41.523Z,35.87
2019-02-19T08:46:12.099Z,33.77
2019-02-19T08:48:44.018Z,38.80
2019-02-19T08:51:14.590Z,28.57
2019-02-19T08:53:45.186Z,33.27
2019-02-19T08:56:15.817Z,34.87
2019-02-19T08:58:46.449Z,41.23
2019-02-19T09:01:17.912Z,34.20
2019-02-19T09:03:49.580Z,32.17
2019-02-19T09:06:20.267Z,30.90
2019-02-19T09:08:51.035Z,33.43
2019-02-19T09:11:21.696Z,29.00
2019-02-19T09:13:52.374Z,30.53
2019-02-19T09:16:23.233Z,30.03
2019-02-19T09:18:53.880Z,25.33
2019-02-19T09:21:27.623Z,29.70
2019-02-19T09:23:58.584Z,31.63
2019-02-19T09:26:29.235Z,32.40
2019-02-19T09:28:59.935Z,29.97
2019-02-19T09:31:30.684Z,32.73
2019-02-19T09:34:01.266Z,26.23
2019-02-19T09:36:34.771Z,36.53
2019-02-19T09:39:06.706Z,25.70
2019-02-19T09:41:37.294Z,30.23
2019-02-19T09:44:07.936Z,26.07
2019-02-19T09:46:38.503Z,28.00
2019-02-19T09:49:09.240Z,24.50
2019-02-19T09:51:39.947Z,20.67
2019-02-19T09:54:10.816Z,29.00
2019-02-19T09:56:41.517Z,26.63
2019-02-19T09:59:12.480Z,28.57
2019-02-19T10:01:43.150Z,27.53
2019-02-19T10:04:13.810Z,27.33
2019-02-19T10:06:44.442Z,24.63
2019-02-19T10:09:15.025Z,25.90
2019-02-19T10:11:45.687Z,28.17
2019-02-19T10:14:16.313Z,27.90
2019-02-19T10:16:46.993Z,20.73
2019-02-19T10:19:17.551Z,23.87
2019-02-19T10:21:48.122Z,26.73
2019-02-19T10:24:18.755Z,25.10
2019-02-19T10:26:49.780Z,22.67
2019-02-19T10:29:20.562Z,18.77
2019-02-19T10:31:51.183Z,23.30
2019-02-19T10:34:21.834Z,20.77
2019-02-19T10:36:52.437Z,19.00
2019-02-19T10:39:23.133Z,24.53
2019-02-19T10:41:54.108Z,31.23
2019-02-19T10:44:24.703Z,28.37
2019-02-19T10:46:55.680Z,17.73
2019-02-19T10:49:26.287Z,20.93
2019-02-19T10:51:56.892Z,26.90
2019-02-19T10:54:27.495Z,24.40
2019-02-19T10:56:58.187Z,21.10
2019-02-19T10:59:30.328Z,25.57
2019-02-19T11:02:00.972Z,26.60
2019-02-19T11:04:31.562Z,27.87
2019-02-19T11:07:02.198Z,28.63
2019-02-19T11:09:32.889Z,21.83
2019-02-19T11:12:03.536Z,18.77
2019-02-19T11:14:34.223Z,27.00
2019-02-19T11:17:04.772Z,29.00
2019-02-19T11:19:35.433Z,27.13
2019-02-19T11:22:06.189Z,39.97
2019-02-19T11:24:37.711Z,31.90
2019-02-19T11:27:08.384Z,22.80
2019-02-19T11:29:39.050Z,23.60
2019-02-19T11:32:09.819Z,26.67
2019-02-19T11:34:40.758Z,18.83
2019-02-19T11:37:11.470Z,20.00
2019-02-19T11:39:42.311Z,26.57
2019-02-19T11:42:13.138Z,24.27
2019-02-19T11:44:43.844Z,17.07
2019-02-19T11:47:15.238Z,21.73
2019-02-19T11:49:45.834Z,16.90
2019-02-19T11:52:16.445Z,17.37
2019-02-19T11:54:47.172Z,18.17
2019-02-19T11:57:17.744Z,20.00
2019-02-19T11:59:49.420Z,18.93
2019-02-19T12:02:21.362Z,20.67
2019-02-19T12:04:51.912Z,21.50
2019-02-19T12:07:22.642Z,14.60
2019-02-19T12:09:53.267Z,22.17
2019-02-19T12:12:23.817Z,14.83
2019-02-19T12:14:54.550Z,16.07
2019-02-19T12:17:25.579Z,17.70
2019-02-19T12:19:56.259Z,13.97
2019-02-19T12:22:28.115Z,16.60
2019-02-19T12:24:58.763Z,17.53
2019-02-19T12:27:29.862Z,17.13
2019-02-19T12:30:00.488Z,20.17
2019-02-19T12:32:31.137Z,13.00
2019-02-19T12:35:03.776Z,15.70
2019-02-19T12:37:34.348Z,19.33
2019-02-19T12:40:05.495Z,12.87
2019-02-19T12:42:36.459Z,12.83
2019-02-19T12:45:08.402Z,13.20
2019-02-19T12:47:39.228Z,18.07
2019-02-19T12:50:11.423Z,12.80
2019-02-19T12:52:42.051Z,14.33
2019-02-19T12:55:12.733Z,17.47
2019-02-19T12:57:43.419Z,12.43
2019-02-19T13:00:15.451Z,22.00
2019-02-19T13:02:46.535Z,14.53
2019-02-19T13:05:17.883Z,17.53
2019-02-19T13:07:48.836Z,13.60
2019-02-19T13:10:19.532Z,16.00
2019-02-19T13:12:50.173Z,22.23
2019-02-19T13:15:20.981Z,14.17
2019-02-19T13:17:52.386Z,13.00
2019-02-19T13:20:22.995Z,13.57
2019-02-19T13:22:53.546Z,14.73
2019-02-19T13:25:24.149Z,11.13
2019-02-19T13:27:54.700Z,12.60
2019-02-19T13:30:25.397Z,14.33
2019-02-19T13:32:56.255Z,9.77
2019-02-19T13:35:26.844Z,9.37
2019-02-19T13:37:57.462Z,11.77
2019-02-19T13:40:28.372Z,11.83
2019-02-19T13:43:00.540Z,10.23
2019-02-19T13:45:31.208Z,13.23
2019-02-19T13:48:05.968Z,10.00
2019-02-19T13:50:34.160Z,11.13
2019-02-19T13:53:15.492Z,11.63
2019-02-19T13:55:52.319Z,13.37
2019-02-19T13:58:22.846Z,13.87
2019-02-19T14:00:53.639Z,4.40
2019-02-19T14:03:24.292Z,11.20
2019-02-19T14:05:54.784Z,11.23
2019-02-19T14:08:26.882Z,13.00
2019-02-19T14:10:57.528Z,8.70
2019-02-19T14:13:28.372Z,11.00
2019-02-19T14:16:16.843Z,9.20
2019-02-19T14:18:59.313Z,11.83
2019-02-19T14:21:47.867Z,10.20
2019-02-19T14:24:36.193Z,6.37
2019-02-19T14:27:28.920Z,8.23
2019-02-19T14:30:18.619Z,9.47
2019-02-19T14:33:03.582Z,8.07
2019-02-19T14:35:51.828Z,10.13
2019-02-19T14:38:43.355Z,10.73
2019-02-19T14:41:45.420Z,7.47
2019-02-19T14:44:42.551Z,12.07
2019-02-19T14:47:31.163Z,8.83
2019-02-19T14:50:15.047Z,8.20
2019-02-19T14:53:13.812Z,9.97
2019-02-19T14:56:12.372Z,8.13
2019-02-19T14:58:59.214Z,10.80
2019-02-19T15:01:58.091Z,11.00
2019-02-19T15:04:47.078Z,12.97
2019-02-19T15:07:26.984Z,9.97
2019-02-19T15:10:15.403Z,7.90
2019-02-19T15:13:04.325Z,11.40
2019-02-19T15:15:48.899Z,8.63
2019-02-19T15:18:42.056Z,9.80
2019-02-19T15:21:37.633Z,10.63
2019-02-19T15:24:32.285Z,11.43
2019-02-19T15:27:21.318Z,11.07
2019-02-19T15:30:14.124Z,13.10
2019-02-19T15:33:02.761Z,11.57
2019-02-19T15:35:52.215Z,11.40
2019-02-19T15:38:41.809Z,10.30
2019-02-19T15:41:29.104Z,11.13
2019-02-19T15:44:10.097Z,11.23
2019-02-19T15:46:50.064Z,9.87
2019-02-19T15:49:35.507Z,13.60
2019-02-19T15:52:27.450Z,8.57
2019-02-19T15:55:20.328Z,13.03
2019-02-19T15:58:09.232Z,9.07
2019-02-19T16:01:05.033Z,11.63
2019-02-19T16:03:51.035Z,8.63
2019-02-19T16:06:45.034Z,8.80
2019-02-19T16:09:26.263Z,8.37
2019-02-19T16:12:09.282Z,11.70
2019-02-19T16:14:46.978Z,11.07
2019-02-19T16:17:55.036Z,9.30
2019-02-19T16:20:44.725Z,10.87
2019-02-19T16:23:35.006Z,15.43
2019-02-19T16:26:43.197Z,7.77
2019-02-19T16:29:28.510Z,11.90
2019-02-19T16:32:21.343Z,13.57
2019-02-19T16:35:11.076Z,10.70
2019-02-19T16:37:49.209Z,9.13
2019-02-19T16:40:45.220Z,14.90
2019-02-19T16:43:50.197Z,9.40
2019-02-19T16:46:32.383Z,9.93
2019-02-19T16:49:30.904Z,12.50
2019-02-19T16:52:23.959Z,14.03
2019-02-19T16:55:04.988Z,15.40
2019-02-19T16:58:00.364Z,15.40
2019-02-19T17:00:40.565Z,14.57
2019-02-19T17:03:19.062Z,20.13
2019-02-19T17:06:05.268Z,16.37
2019-02-19T17:09:10.195Z,15.47
2019-02-19T17:11:49.015Z,16.63
2019-02-19T17:14:38.849Z,18.33
2019-02-19T17:17:30.466Z,18.43
2019-02-19T17:20:29.150Z,15.10
2019-02-19T17:23:21.104Z,18.47
2019-02-19T17:26:13.412Z,18.93
2019-02-19T17:29:18.581Z,16.17
2019-02-19T17:32:15.028Z,18.43
2019-02-19T17:35:15.116Z,17.77
2019-02-19T17:38:12.338Z,21.43
2019-02-19T17:40:48.503Z,13.13
2019-02-19T17:43:47.180Z,9.27
2019-02-19T17:46:34.399Z,7.90
2019-02-19T17:49:24.557Z,6.70
2019-02-19T17:52:05.383Z,6.37
2019-02-19T17:55:01.449Z,3.17
2019-02-19T17:57:54.659Z,4.30
2019-02-19T18:00:41.099Z,6.30
2019-02-19T18:03:35.594Z,5.67
2019-02-19T18:06:31.049Z,5.00
2019-02-19T18:09:20.948Z,5.27
2019-02-19T18:12:08.450Z,4.17
2019-02-19T18:15:01.064Z,11.23
2019-02-19T18:17:38.282Z,8.83
2019-02-19T18:20:11.095Z,7.53
2019-02-19T18:22:42.264Z,5.97
2019-02-19T18:25:13.202Z,6.60
2019-02-19T18:27:44.249Z,5.93
2019-02-19T18:30:15.344Z,6.60
2019-02-19T18:32:47.640Z,5.10
2019-02-19T18:35:19.054Z,7.80
2019-02-19T18:37:55.910Z,6.57
2019-02-19T18:40:33.445Z,8.83
2019-02-19T18:43:04.605Z,7.20
2019-02-19T18:45:35.419Z,6.90
2019-02-19T18:48:09.181Z,8.13
2019-02-19T18:50:40.490Z,5.33
2019-02-19T18:53:11.573Z,6.33
2019-02-19T18:55:51.082Z,12.73
2019-02-19T18:58:23.135Z,7.43
2019-02-19T19:00:54.828Z,9.87
2019-02-19T19:03:28.376Z,7.37
2019-02-19T19:06:07.888Z,7.65
2019-02-19T19:08:44.205Z,5.07
2019-02-19T19:11:20.080Z,10.07
2019-02-19T19:14:05.793Z,9.77
2019-02-19T19:16:39.264Z,10.78
2019-02-19T19:19:13.139Z,11.30
2019-02-19T19:21:55.049Z,12.37
2019-02-19T19:25:01.105Z,10.48
2019-02-19T19:27:32.445Z,11.50
2019-02-19T19:30:07.137Z,15.35
2019-02-19T19:32:43.329Z,11.77
2019-02-19T19:35:23.888Z,11.10
2019-02-19T19:37:58.704Z,15.63
2019-02-19T19:40:36.201Z,10.83
2019-02-19T19:43:24.474Z,13.40
2019-02-19T19:46:34.815Z,15.47
2019-02-19T19:49:24.000Z,12.20
2019-02-19T19:52:01.003Z,11.10
2019-02-19T19:54:36.443Z,17.67
2019-02-19T19:57:16.385Z,13.90
2019-02-19T19:59:52.893Z,10.47
2019-02-19T20:02:29.651Z,15.70
2019-02-19T20:05:08.930Z,14.60
2019-02-19T20:07:47.998Z,12.93
2019-02-19T20:10:23.509Z,15.87
2019-02-19T20:12:57.242Z,15.93
2019-02-19T20:15:35.715Z,13.27
2019-02-19T20:18:12.947Z,15.27
2019-02-19T20:20:45.620Z,15.08
2019-02-19T20:23:16.706Z,14.60
2019-02-19T20:25:47.433Z,14.13
2019-02-19T20:28:18.369Z,11.27
2019-02-19T20:30:56.913Z,15.03
2019-02-19T20:33:27.994Z,15.43
2019-02-19T20:35:58.802Z,11.30
2019-02-19T20:38:30.206Z,13.10
2019-02-19T20:41:03.412Z,13.37
2019-02-19T20:43:35.212Z,16.63
2019-02-19T20:46:10.349Z,15.47
2019-02-19T20:48:49.811Z,14.73
2019-02-19T20:51:35.899Z,12.93
2019-02-19T20:53:59.574Z,14.00
2019-02-19T20:56:32.934Z,14.70
2019-02-19T20:59:19.481Z,22.03
2019-02-19T21:01:52.030Z,13.53
2019-02-19T21:04:22.654Z,16.40
2019-02-19T21:06:53.559Z,17.37
2019-02-19T21:09:24.328Z,18.87
2019-02-19T21:12:11.307Z,17.83
2019-02-19T21:14:51.348Z,22.03
2019-02-19T21:17:32.615Z,17.70
2019-02-19T21:20:07.840Z,21.23
2019-02-19T21:22:38.651Z,22.03
2019-02-19T21:25:09.445Z,17.50
2019-02-19T21:27:40.269Z,18.10
2019-02-19T21:30:12.184Z,12.30
2019-02-19T21:32:46.412Z,16.00
2019-02-19T21:35:23.179Z,17.93
2019-02-19T21:37:54.061Z,14.20
2019-02-19T21:40:24.967Z,21.23
2019-02-19T21:42:58.090Z,17.07
2019-02-19T21:45:29.042Z,20.60
2019-02-19T21:48:00.251Z,15.80
2019-02-19T21:50:31.089Z,11.13
2019-02-19T21:53:02.446Z,13.53
2019-02-19T21:55:36.109Z,17.83
2019-02-19T21:58:07.015Z,15.40
2019-02-19T22:00:38.350Z,18.67
2019-02-19T22:03:09.148Z,13.73
2019-02-19T22:05:40.111Z,21.70
2019-02-19T22:08:11.215Z,21.03
2019-02-19T22:10:42.144Z,14.00
2019-02-19T22:13:18.069Z,19.70
2019-02-19T22:15:54.833Z,16.90
2019-02-19T22:18:28.315Z,19.23
2019-02-19T22:21:07.159Z,16.10
2019-02-19T22:23:42.058Z,20.90
2019-02-19T22:26:24.937Z,16.97
2019-02-19T22:28:59.288Z,23.13
2019-02-19T22:31:31.301Z,14.97
2019-02-19T22:34:02.418Z,14.60
2019-02-19T22:36:33.405Z,13.70
2019-02-19T22:39:06.512Z,18.80
2019-02-19T22:41:37.514Z,14.07
2019-02-19T22:44:08.273Z,12.03
2019-02-19T22:46:40.584Z,11.90
2019-02-19T22:49:11.473Z,10.77
2019-02-19T22:51:44.932Z,17.97
2019-02-19T22:54:33.876Z,15.37
2019-02-19T22:57:04.679Z,9.80
2019-02-19T22:59:41.755Z,11.37
2019-02-19T23:02:21.796Z,12.33
2019-02-19T23:04:56.146Z,8.43
2019-02-19T23:07:26.796Z,11.30
2019-02-19T23:09:57.868Z,7.93
2019-02-19T23:12:30.860Z,8.40
2019-02-19T23:15:01.456Z,18.70
2019-02-19T23:17:33.923Z,19.70
2019-02-19T23:20:09.959Z,8.13
2019-02-19T23:22:42.419Z,11.60
2019-02-19T23:25:13.314Z,14.53
2019-02-19T23:27:44.041Z,14.90
2019-02-19T23:30:15.081Z,15.23
2019-02-19T23:32:45.809Z,15.17
2019-02-19T23:35:23.351Z,16.13
2019-02-19T23:37:55.336Z,15.13
2019-02-19T23:40:26.206Z,16.83
2019-02-19T23:43:00.063Z,17.70
2019-02-19T23:45:34.466Z,12.80
2019-02-19T23:48:06.048Z,12.50
2019-02-19T23:50:42.730Z,14.87
2019-02-19T23:53:13.691Z,16.90
2019-02-19T23:55:47.498Z,14.40
2019-02-19T23:58:18.204Z,9.20
